createdAt,value
2023-01-22T00:00:24.471Z,835.00
2023-01-22T00:01:24.421Z,836.00
2023-01-22T00:02:24.427Z,835.00
2023-01-22T00:03:24.299Z,842.00
2023-01-22T00:04:24.201Z,855.00
2023-01-22T00:05:24.155Z,837.00
2023-01-22T00:06:24.081Z,842.00
2023-01-22T00:07:24.011Z,843.00
2023-01-22T00:08:23.956Z,844.00
2023-01-22T00:09:23.895Z,843.00
2023-01-22T00:10:23.850Z,832.00
2023-01-22T00:11:23.754Z,840.00
2023-01-22T00:12:23.701Z,834.00
2023-01-22T00:13:23.633Z,832.00
2023-01-22T00:14:23.571Z,837.00
2023-01-22T00:15:23.488Z,837.00
2023-01-22T00:16:23.447Z,836.00
2023-01-22T00:17:23.375Z,842.00
2023-01-22T00:18:23.307Z,847.00
2023-01-22T00:19:23.229Z,835.00
2023-01-22T00:20:23.153Z,837.00
2023-01-22T00:21:23.094Z,841.00
2023-01-22T00:22:23.039Z,838.00
2023-01-22T00:23:23.009Z,842.00
2023-01-22T00:24:22.925Z,836.00
2023-01-22T00:25:22.805Z,838.00
2023-01-22T00:26:22.758Z,823.00
2023-01-22T00:27:22.671Z,837.00
2023-01-22T00:28:22.612Z,836.00
2023-01-22T00:29:22.554Z,837.00
2023-01-22T00:30:22.467Z,835.00
2023-01-22T00:31:22.437Z,832.00
2023-01-22T00:32:22.373Z,830.00
2023-01-22T00:33:22.287Z,835.00
2023-01-22T00:34:22.231Z,834.00
2023-01-22T00:35:22.149Z,834.00
2023-01-22T00:36:22.092Z,826.00
2023-01-22T00:37:22.050Z,825.00
2023-01-22T00:38:21.955Z,826.00
2023-01-22T00:39:21.877Z,823.00
2023-01-22T00:40:21.825Z,840.00
2023-01-22T00:41:21.785Z,832.00
2023-01-22T00:42:21.678Z,833.00
2023-01-22T00:43:21.637Z,827.00
2023-01-22T00:44:21.541Z,836.00
2023-01-22T00:45:21.469Z,824.00
2023-01-22T00:46:21.463Z,831.00
2023-01-22T00:47:21.362Z,838.00
2023-01-22T00:48:21.295Z,835.00
2023-01-22T00:49:21.212Z,833.00
2023-01-22T00:50:21.167Z,829.00
2023-01-22T00:51:21.145Z,834.00
2023-01-22T00:52:20.984Z,821.00
2023-01-22T00:53:20.957Z,824.00
2023-01-22T00:54:20.847Z,830.00
2023-01-22T00:55:20.771Z,830.00
2023-01-22T00:56:20.704Z,821.00
2023-01-22T00:57:20.641Z,834.00
2023-01-22T00:58:20.557Z,835.00
2023-01-22T00:59:20.526Z,817.00
2023-01-22T01:00:20.609Z,831.00
2023-01-22T01:01:20.380Z,817.00
2023-01-22T01:02:20.391Z,832.00
2023-01-22T01:03:20.256Z,835.00
2023-01-22T01:04:20.192Z,827.00
2023-01-22T01:05:20.124Z,822.00
2023-01-22T01:06:20.088Z,834.00
2023-01-22T01:07:19.979Z,829.00
2023-01-22T01:08:19.932Z,838.00
2023-01-22T01:09:19.859Z,836.00
2023-01-22T01:10:20.238Z,817.00
2023-01-22T01:11:19.717Z,828.00
2023-01-22T01:12:19.678Z,825.00
2023-01-22T01:13:19.590Z,834.00
2023-01-22T01:14:19.543Z,831.00
2023-01-22T01:15:19.457Z,829.00
2023-01-22T01:16:19.575Z,827.00
2023-01-22T01:17:19.338Z,828.00
2023-01-22T01:18:19.282Z,836.00
2023-01-22T01:19:19.217Z,819.00
2023-01-22T01:20:19.482Z,828.00
2023-01-22T01:21:19.123Z,819.00
2023-01-22T01:22:19.019Z,836.00
2023-01-22T01:23:18.979Z,822.00
2023-01-22T03:00:12.487Z,810.00
2023-01-22T03:01:12.446Z,810.00
2023-01-22T03:02:12.361Z,812.00
2023-01-22T03:03:12.272Z,808.00
2023-01-22T03:04:12.223Z,807.00
2023-01-22T03:05:12.142Z,799.00
2023-01-22T03:06:12.054Z,812.00
2023-01-22T03:07:12.002Z,805.00
2023-01-22T03:08:12.010Z,789.00
2023-01-22T03:09:11.882Z,812.00
2023-01-22T03:10:11.844Z,807.00
2023-01-22T03:11:11.740Z,802.00
2023-01-22T03:12:11.673Z,808.00
2023-01-22T03:13:11.626Z,811.00
2023-01-22T03:14:11.533Z,812.00
2023-01-22T03:15:11.471Z,817.00
2023-01-22T03:16:11.477Z,804.00
2023-01-22T03:17:11.325Z,800.00
2023-01-22T03:18:11.268Z,802.00
2023-01-22T03:19:11.201Z,812.00
2023-01-22T03:20:11.134Z,805.00
2023-01-22T03:21:11.091Z,814.00
2023-01-22T03:22:10.996Z,810.00
2023-01-22T03:23:10.930Z,813.00
2023-01-22T03:24:10.944Z,802.00
2023-01-22T03:25:10.777Z,799.00
2023-01-22T03:26:10.753Z,794.00
2023-01-22T03:27:10.687Z,798.00
2023-01-22T03:28:10.614Z,802.00
2023-01-22T03:29:10.552Z,804.00
2023-01-22T03:30:10.473Z,785.00
2023-01-22T03:31:10.453Z,791.00
2023-01-22T03:32:10.368Z,811.00
2023-01-22T03:33:10.308Z,795.00
2023-01-22T03:34:10.246Z,795.00
2023-01-22T03:35:10.170Z,786.00
2023-01-22T03:36:10.110Z,803.00
2023-01-22T03:37:10.048Z,802.00
2023-01-22T03:38:09.969Z,799.00
2023-01-22T03:39:09.906Z,795.00
2023-01-22T03:40:09.910Z,793.00
2023-01-22T03:41:09.785Z,799.00
2023-01-22T03:42:09.705Z,791.00
2023-01-22T03:43:09.626Z,794.00
2023-01-22T03:44:09.570Z,800.00
2023-01-22T03:45:09.478Z,798.00
2023-01-22T03:46:09.493Z,797.00
2023-01-22T03:47:09.374Z,787.00
2023-01-22T03:48:09.308Z,797.00
2023-01-22T03:49:09.221Z,794.00
2023-01-22T03:50:09.167Z,797.00
2023-01-22T03:51:09.169Z,792.00
2023-01-22T03:52:09.018Z,794.00
2023-01-22T03:53:08.948Z,797.00
2023-01-22T04:30:06.470Z,791.00
2023-01-22T04:31:06.492Z,791.00
2023-01-22T04:32:06.335Z,779.00
2023-01-22T04:33:06.279Z,781.00
2023-01-22T04:34:06.192Z,793.00
2023-01-22T04:35:06.112Z,792.00
2023-01-22T04:36:06.073Z,789.00
2023-01-22T04:37:06.029Z,781.00
2023-01-22T04:38:05.932Z,789.00
2023-01-22T04:39:05.859Z,782.00
2023-01-22T04:40:05.803Z,771.00
2023-01-22T04:41:05.744Z,786.00
2023-01-22T04:42:05.673Z,782.00
2023-01-22T04:43:05.609Z,785.00
2023-01-22T04:44:05.635Z,778.00
2023-01-22T04:45:05.487Z,777.00
2023-01-22T04:46:05.481Z,792.00
2023-01-22T04:47:05.393Z,784.00
2023-01-22T04:48:05.315Z,783.00
2023-01-22T04:49:05.245Z,784.00
2023-01-22T04:50:05.171Z,785.00
2023-01-22T04:51:05.143Z,782.00
2023-01-22T04:52:05.054Z,782.00
2023-01-22T04:53:05.008Z,789.00
2023-01-22T04:54:04.938Z,776.00
2023-01-22T04:55:04.845Z,790.00
2023-01-22T04:56:04.793Z,784.00
2023-01-22T04:57:04.744Z,776.00
2023-01-22T04:58:04.673Z,780.00
2023-01-22T04:59:04.612Z,793.00
2023-01-22T05:00:04.626Z,780.00
2023-01-22T05:01:04.520Z,785.00
2023-01-22T05:02:04.424Z,775.00
2023-01-22T05:03:04.346Z,773.00
2023-01-22T05:04:04.286Z,784.00
2023-01-22T05:05:04.213Z,776.00
2023-01-22T05:06:04.162Z,777.00
2023-01-22T05:07:04.108Z,780.00
2023-01-22T05:08:04.045Z,781.00
2023-01-22T05:09:03.943Z,785.00
2023-01-22T05:10:03.907Z,789.00
2023-01-22T05:11:03.858Z,779.00
2023-01-22T05:12:03.770Z,783.00
2023-01-22T05:13:03.724Z,771.00
2023-01-22T05:14:03.628Z,776.00
2023-01-22T05:15:07.279Z,778.00
2023-01-22T05:16:04.595Z,780.00
2023-01-22T05:17:03.452Z,781.00
2023-01-22T05:18:03.363Z,781.00
2023-01-22T05:19:03.313Z,771.00
2023-01-22T05:20:03.229Z,776.00
2023-01-22T05:21:03.195Z,780.00
2023-01-22T05:22:03.083Z,770.00
2023-01-22T05:23:03.062Z,777.00
2023-01-22T05:24:02.983Z,774.00
2023-01-22T05:25:02.889Z,782.00
2023-01-22T05:26:02.851Z,774.00
2023-01-22T05:27:02.764Z,776.00
2023-01-22T05:28:02.707Z,768.00
2023-01-22T05:29:02.618Z,789.00
2023-01-22T05:30:02.555Z,770.00
2023-01-22T05:31:02.574Z,769.00
2023-01-22T05:32:02.495Z,774.00
2023-01-22T05:33:02.357Z,771.00
2023-01-22T05:34:02.266Z,786.00
2023-01-22T05:35:02.187Z,777.00
2023-01-22T05:36:02.145Z,771.00
2023-01-22T05:37:02.076Z,770.00
2023-01-22T05:38:02.032Z,777.00
2023-01-22T05:39:01.950Z,758.00
2023-01-22T05:40:01.909Z,773.00
2023-01-22T05:41:01.831Z,778.00
2023-01-22T05:42:01.770Z,767.00
2023-01-22T05:43:01.700Z,761.00
2023-01-22T05:44:01.633Z,767.00
2023-01-22T05:45:01.590Z,769.00
2023-01-22T05:46:01.606Z,781.00
2023-01-22T05:47:01.434Z,772.00
2023-01-22T05:48:01.469Z,764.00
2023-01-22T05:49:01.310Z,779.00
2023-01-22T05:50:01.504Z,776.00
2023-01-22T05:51:01.211Z,765.00
2023-01-22T05:52:01.123Z,763.00
2023-01-22T05:53:01.070Z,763.00
2023-01-22T05:54:01.021Z,771.00
2023-01-22T05:55:00.941Z,765.00
2023-01-22T05:56:00.879Z,778.00
2023-01-22T05:57:00.795Z,770.00
2023-01-22T05:58:00.752Z,769.00
2023-01-22T05:59:00.677Z,769.00
2023-01-22T06:00:00.608Z,769.00
2023-01-22T06:01:00.558Z,772.00
2023-01-22T06:02:00.479Z,770.00
2023-01-22T06:03:00.457Z,767.00
2023-01-22T06:04:00.433Z,772.00
2023-01-22T06:05:00.305Z,772.00
2023-01-22T06:06:00.224Z,770.00
2023-01-22T06:07:00.155Z,773.00
2023-01-22T06:08:00.152Z,765.00
2023-01-22T06:09:00.030Z,766.00
2023-01-22T06:09:59.973Z,765.00
2023-01-22T06:10:59.913Z,768.00
2023-01-22T06:11:59.838Z,765.00
2023-01-22T06:12:59.778Z,758.00
2023-01-22T06:13:59.712Z,766.00
2023-01-22T06:14:59.692Z,774.00
2023-01-22T06:15:59.633Z,756.00
2023-01-22T06:16:59.506Z,768.00
2023-01-22T06:17:59.450Z,764.00
2023-01-22T06:18:59.400Z,770.00
2023-01-22T06:19:59.407Z,763.00
2023-01-22T06:20:59.251Z,763.00
2023-01-22T06:21:59.189Z,772.00
2023-01-22T06:22:59.133Z,765.00
2023-01-22T06:23:59.092Z,751.00
2023-01-22T06:24:58.982Z,766.00
2023-01-22T06:25:58.936Z,776.00
2023-01-22T06:26:58.882Z,766.00
2023-01-22T06:27:58.800Z,751.00
2023-01-22T06:28:58.733Z,757.00
2023-01-22T06:29:58.653Z,752.00
2023-01-22T06:30:58.769Z,763.00
2023-01-22T06:31:58.545Z,756.00
2023-01-22T06:32:58.458Z,756.00
2023-01-22T06:33:58.403Z,764.00
2023-01-22T06:34:58.319Z,750.00
2023-01-22T06:35:58.327Z,778.00
2023-01-22T06:36:58.207Z,760.00
2023-01-22T06:37:58.125Z,761.00
2023-01-22T06:38:58.079Z,763.00
2023-01-22T06:39:58.016Z,756.00
2023-01-22T06:40:57.941Z,752.00
2023-01-22T06:41:57.874Z,758.00
2023-01-22T06:42:57.797Z,751.00
2023-01-22T06:43:57.786Z,758.00
2023-01-22T06:44:57.653Z,761.00
2023-01-22T06:45:57.615Z,762.00
2023-01-22T06:46:57.555Z,761.00
2023-01-22T06:47:57.474Z,765.00
2023-01-22T06:48:57.423Z,757.00
2023-01-22T06:49:57.337Z,757.00
2023-01-22T06:50:57.335Z,753.00
2023-01-22T06:51:57.254Z,763.00
2023-01-22T06:52:57.129Z,748.00
2023-01-22T06:53:57.076Z,759.00
2023-01-22T06:54:56.973Z,761.00
2023-01-22T06:55:56.904Z,762.00
2023-01-22T06:56:56.846Z,760.00
2023-01-22T06:57:56.792Z,753.00
2023-01-22T06:58:56.724Z,771.00
2023-01-22T06:59:56.654Z,763.00
2023-01-22T07:00:56.590Z,757.00
2023-01-22T07:01:56.603Z,764.00
2023-01-22T07:02:56.452Z,756.00
2023-01-22T07:03:56.423Z,760.00
2023-01-22T07:04:56.299Z,756.00
2023-01-22T07:05:56.268Z,766.00
2023-01-22T07:06:56.163Z,752.00
2023-01-22T07:07:56.185Z,766.00
2023-01-22T07:08:56.068Z,758.00
2023-01-22T07:09:55.979Z,744.00
2023-01-22T07:10:55.939Z,749.00
2023-01-22T07:11:55.848Z,755.00
2023-01-22T07:12:55.794Z,763.00
2023-01-22T07:13:55.728Z,752.00
2023-01-22T07:14:55.650Z,735.00
2023-01-22T07:15:55.615Z,751.00
2023-01-22T07:16:55.500Z,755.00
2023-01-22T07:17:55.446Z,761.00
2023-01-22T07:18:55.375Z,757.00
2023-01-22T07:19:55.324Z,753.00
2023-01-22T07:20:55.247Z,743.00
2023-01-22T07:21:55.173Z,755.00
2023-01-22T07:22:55.107Z,755.00
2023-01-22T07:24:00.118Z,743.00
2023-01-22T07:24:56.073Z,745.00
2023-01-22T07:25:54.894Z,746.00
2023-01-22T07:26:54.838Z,747.00
2023-01-22T07:27:54.762Z,753.00
2023-01-22T07:28:54.699Z,757.00
2023-01-22T07:29:54.615Z,761.00
2023-01-22T07:30:54.651Z,759.00
2023-01-22T07:31:54.540Z,746.00
2023-01-22T07:32:54.430Z,746.00
2023-01-22T07:33:54.355Z,754.00
2023-01-22T07:34:54.317Z,751.00
2023-01-22T07:35:54.216Z,746.00
2023-01-22T07:36:54.183Z,752.00
2023-01-22T07:37:54.097Z,757.00
2023-01-22T07:38:54.113Z,745.00
2023-01-22T07:39:53.960Z,755.00
2023-01-22T07:40:53.957Z,749.00
2023-01-22T07:41:53.832Z,752.00
2023-01-22T07:42:53.794Z,749.00
2023-01-22T07:43:53.721Z,751.00
2023-01-22T07:44:53.623Z,755.00
2023-01-22T07:45:53.527Z,743.00
2023-01-22T07:46:53.575Z,739.00
2023-01-22T07:47:53.489Z,753.00
2023-01-22T07:48:53.337Z,746.00
2023-01-22T07:49:53.308Z,751.00
2023-01-22T07:50:53.247Z,743.00
2023-01-22T07:51:53.170Z,751.00
2023-01-22T07:52:53.087Z,747.00
2023-01-22T07:53:53.035Z,751.00
2023-01-22T07:54:53.005Z,748.00
2023-01-22T07:55:52.901Z,754.00
2023-01-22T07:56:52.929Z,748.00
2023-01-22T07:57:52.733Z,748.00
2023-01-22T07:58:52.702Z,747.00
2023-01-22T07:59:52.612Z,744.00
2023-01-22T08:00:52.621Z,742.00
2023-01-22T08:01:52.515Z,751.00
2023-01-22T08:02:52.403Z,742.00
2023-01-22T08:03:52.342Z,739.00
2023-01-22T08:04:52.289Z,742.00
2023-01-22T08:05:52.253Z,740.00
2023-01-22T08:06:52.161Z,737.00
2023-01-22T08:07:52.090Z,732.00
2023-01-22T08:08:52.069Z,748.00
2023-01-22T08:09:51.941Z,744.00
2023-01-22T08:10:51.888Z,753.00
2023-01-22T08:11:51.817Z,744.00
2023-01-22T08:12:51.836Z,743.00
2023-01-22T08:13:51.651Z,750.00
2023-01-22T08:14:51.624Z,744.00
2023-01-22T08:15:51.569Z,734.00
2023-01-22T08:16:51.485Z,741.00
2023-01-22T08:17:51.397Z,746.00
2023-01-22T08:18:51.317Z,741.00
2023-01-22T08:19:51.253Z,734.00
2023-01-22T08:20:51.217Z,755.00
2023-01-22T08:21:51.110Z,736.00
2023-01-22T08:22:51.039Z,737.00
2023-01-22T08:23:50.960Z,738.00
2023-01-22T08:24:50.896Z,752.00
2023-01-22T08:25:50.855Z,749.00
2023-01-22T08:26:50.740Z,739.00
2023-01-22T08:27:50.655Z,744.00
2023-01-22T08:28:50.679Z,739.00
2023-01-22T08:29:50.532Z,744.00
2023-01-22T08:30:50.524Z,748.00
2023-01-22T08:31:50.553Z,737.00
2023-01-22T08:32:50.311Z,742.00
2023-01-22T08:33:50.278Z,729.00
2023-01-22T08:34:50.174Z,737.00
2023-01-22T08:35:50.140Z,735.00
2023-01-22T08:36:50.127Z,752.00
2023-01-22T08:37:50.008Z,728.00
2023-01-22T08:38:49.930Z,745.00
2023-01-22T08:39:49.862Z,733.00
2023-01-22T08:40:49.803Z,732.00
2023-01-22T08:41:49.705Z,729.00
2023-01-22T08:42:49.631Z,737.00
2023-01-22T08:43:49.570Z,750.00
2023-01-22T08:44:54.905Z,738.00
2023-01-22T08:45:50.557Z,739.00
2023-01-22T08:46:49.396Z,738.00
2023-01-22T08:47:49.274Z,739.00
2023-01-22T08:48:49.236Z,743.00
2023-01-22T08:49:49.126Z,747.00
2023-01-22T08:50:49.096Z,741.00
2023-01-22T08:51:49.006Z,741.00
2023-01-22T08:52:48.905Z,749.00
2023-01-22T10:41:39.365Z,786.00
2023-01-22T10:42:39.271Z,779.00
2023-01-22T10:43:39.179Z,770.00
2023-01-22T10:44:39.061Z,773.00
2023-01-22T10:45:38.955Z,752.00
2023-01-22T12:06:31.059Z,759.00
2023-01-22T12:07:30.946Z,760.00
2023-01-22T12:08:30.869Z,761.00
2023-01-22T12:09:30.787Z,766.00
2023-01-22T12:10:30.640Z,768.00
2023-01-22T12:11:30.559Z,769.00
2023-01-22T12:12:30.470Z,781.00
2023-01-22T12:13:30.420Z,771.00
2023-01-22T12:14:30.290Z,776.00
2023-01-22T12:15:30.141Z,781.00
2023-01-22T12:16:30.077Z,785.00
2023-01-22T12:17:29.953Z,785.00
2023-01-22T12:18:29.853Z,778.00
2023-01-22T12:19:29.778Z,783.00
2023-01-22T12:20:29.664Z,768.00
2023-01-22T12:21:29.556Z,771.00
2023-01-22T12:22:29.467Z,778.00
2023-01-22T12:23:29.388Z,773.00
2023-01-22T12:24:29.267Z,787.00
2023-01-22T12:25:29.174Z,784.00
2023-01-22T12:26:29.093Z,783.00
2023-01-22T12:27:28.987Z,774.00
2023-01-22T12:29:28.885Z,799.00
2023-01-22T13:32:22.227Z,755.00
2023-01-22T13:33:22.174Z,752.00
2023-01-22T13:34:22.139Z,752.00
2023-01-22T13:35:21.941Z,745.00
2023-01-22T13:36:21.832Z,754.00
2023-01-22T13:37:21.726Z,748.00
2023-01-22T13:38:21.634Z,751.00
2023-01-22T13:39:21.515Z,740.00
2023-01-22T13:40:21.403Z,741.00
2023-01-22T13:41:21.315Z,745.00
2023-01-22T13:42:21.201Z,748.00
2023-01-22T13:43:21.105Z,746.00
2023-01-22T13:44:20.981Z,757.00
2023-01-22T13:45:21.000Z,747.00
2023-01-22T13:46:20.837Z,748.00
2023-01-22T13:47:20.817Z,739.00
2023-01-22T13:48:20.603Z,739.00
2023-01-22T13:49:20.486Z,736.00
2023-01-22T13:50:20.881Z,733.00
2023-01-22T13:51:20.281Z,723.00
2023-01-22T13:52:20.176Z,730.00
2023-01-22T13:53:20.044Z,721.00
2023-01-22T13:54:19.923Z,729.00
2023-01-22T13:55:19.831Z,714.00
2023-01-22T13:56:19.691Z,718.00
2023-01-22T13:57:19.644Z,739.00
2023-01-22T13:58:19.490Z,721.00
2023-01-22T13:59:19.370Z,727.00
2023-01-22T14:00:19.565Z,719.00
2023-01-22T14:01:19.160Z,715.00
2023-01-22T14:02:19.104Z,705.00
2023-01-22T14:03:18.916Z,712.00
2023-01-22T15:00:12.836Z,663.00
2023-01-22T15:02:12.649Z,655.00
2023-01-22T15:03:12.512Z,660.00
2023-01-22T15:04:12.392Z,661.00
2023-01-22T15:05:12.315Z,660.00
2023-01-22T15:06:12.215Z,661.00
2023-01-22T15:07:12.117Z,663.00
2023-01-22T15:08:12.025Z,654.00
2023-01-22T15:09:11.918Z,658.00
2023-01-22T15:10:12.038Z,657.00
2023-01-22T15:11:11.763Z,656.00
2023-01-22T15:12:11.662Z,654.00
2023-01-22T15:13:11.578Z,654.00
2023-01-22T15:14:11.477Z,656.00
2023-01-22T15:15:11.348Z,655.00
2023-01-22T15:16:11.298Z,655.00
2023-01-22T15:17:11.191Z,656.00
2023-01-22T15:18:11.067Z,654.00
2023-01-22T15:19:10.975Z,648.00
2023-01-22T15:20:10.911Z,651.00
2023-01-22T15:21:10.807Z,653.00
2023-01-22T15:22:10.715Z,651.00
2023-01-22T15:23:10.625Z,652.00
2023-01-22T15:24:10.525Z,652.00
2023-01-22T15:25:10.437Z,646.00
2023-01-22T15:26:10.421Z,655.00
2023-01-22T15:27:10.255Z,659.00
2023-01-22T15:28:10.159Z,648.00
2023-01-22T15:29:10.045Z,649.00
2023-01-22T15:30:09.974Z,650.00
2023-01-22T15:31:09.879Z,651.00
2023-01-22T15:32:09.775Z,646.00
2023-01-22T15:33:09.673Z,647.00
2023-01-22T15:34:09.572Z,643.00
2023-01-22T15:35:09.493Z,653.00
2023-01-22T15:36:09.390Z,649.00
2023-01-22T15:37:09.303Z,641.00
2023-01-22T15:38:09.215Z,650.00
2023-01-22T15:39:09.114Z,646.00
2023-01-22T15:40:09.023Z,656.00
2023-01-22T15:41:08.936Z,650.00
2023-01-22T15:42:08.922Z,641.00
2023-01-22T17:09:01.245Z,640.00
2023-01-22T17:10:01.222Z,644.00
2023-01-22T17:11:01.015Z,647.00
2023-01-22T17:12:00.976Z,646.00
2023-01-22T17:13:00.895Z,647.00
2023-01-22T17:14:00.793Z,644.00
2023-01-22T17:15:00.712Z,653.00
2023-01-22T17:16:00.670Z,648.00
2023-01-22T17:17:00.519Z,647.00
2023-01-22T17:18:00.534Z,633.00
2023-01-22T17:19:00.363Z,646.00
2023-01-22T17:20:00.295Z,656.00
2023-01-22T17:21:02.309Z,633.00
2023-01-22T17:22:00.141Z,650.00
2023-01-22T17:23:00.008Z,646.00
2023-01-22T17:23:59.943Z,651.00
2023-01-22T17:24:59.845Z,652.00
2023-01-22T17:25:59.767Z,645.00
2023-01-22T17:26:59.658Z,649.00
2023-01-22T17:27:59.569Z,649.00
2023-01-22T17:28:59.535Z,638.00
2023-01-22T17:29:59.495Z,639.00
2023-01-22T17:30:59.393Z,645.00
2023-01-22T17:31:59.319Z,645.00
2023-01-22T17:32:59.149Z,646.00
2023-01-22T17:33:59.166Z,644.00
2023-01-22T17:34:58.987Z,654.00
2023-01-22T17:35:58.932Z,650.00
2023-01-22T18:37:59.538Z,638.00
2023-01-22T19:06:51.265Z,634.00
2023-01-22T19:07:51.193Z,640.00
2023-01-22T19:08:51.116Z,640.00
2023-01-22T19:09:51.046Z,637.00
2023-01-22T19:11:52.261Z,638.00
2023-01-22T19:12:50.805Z,638.00
2023-01-22T19:13:50.713Z,638.00
2023-01-22T19:14:50.609Z,639.00
2023-01-22T19:15:50.586Z,640.00
2023-01-22T19:16:50.470Z,638.00
2023-01-22T19:17:50.403Z,639.00
2023-01-22T19:18:50.296Z,640.00
2023-01-22T19:19:50.220Z,636.00
2023-01-22T19:20:50.147Z,636.00
2023-01-22T19:21:50.064Z,636.00
2023-01-22T19:22:49.973Z,635.00
2023-01-22T19:23:49.895Z,637.00
2023-01-22T19:24:49.817Z,636.00
2023-01-22T19:25:49.757Z,633.00
2023-01-22T19:26:51.290Z,636.00
2023-01-22T19:27:49.663Z,636.00
2023-01-22T19:28:49.516Z,638.00
2023-01-22T19:29:49.430Z,634.00
2023-01-22T19:30:49.417Z,642.00
2023-01-22T19:31:49.362Z,632.00
2023-01-22T19:32:49.179Z,636.00
2023-01-22T19:33:49.087Z,636.00
2023-01-22T19:34:49.007Z,633.00
2023-01-22T19:35:49.684Z,636.00
2023-01-22T21:16:41.076Z,630.00
2023-01-22T21:17:40.860Z,625.00
2023-01-22T21:18:40.768Z,627.00
2023-01-22T21:19:42.882Z,632.00
2023-01-22T21:20:40.595Z,632.00
2023-01-22T21:21:40.524Z,633.00
2023-01-22T21:22:40.492Z,632.00
2023-01-22T21:23:40.338Z,628.00
2023-01-22T21:24:40.294Z,628.00
2023-01-22T21:25:40.197Z,629.00
2023-01-22T21:26:40.106Z,628.00
2023-01-22T21:27:40.063Z,632.00
2023-01-22T21:28:39.962Z,628.00
2023-01-22T21:29:39.890Z,628.00
2023-01-22T21:30:39.870Z,626.00
2023-01-22T21:31:39.734Z,629.00
2023-01-22T21:32:39.677Z,627.00
2023-01-22T21:33:39.578Z,625.00
2023-01-22T21:34:39.508Z,630.00
2023-01-22T21:35:39.501Z,625.00
2023-01-22T21:36:39.344Z,623.00
2023-01-22T21:37:39.271Z,623.00
2023-01-22T21:38:39.203Z,626.00
2023-01-22T21:39:39.095Z,628.00
2023-01-22T21:40:39.029Z,624.00
2023-01-22T21:41:38.953Z,629.00
2023-01-22T21:42:38.903Z,627.00
2023-01-22T23:09:32.195Z,621.00
2023-01-22T23:20:31.333Z,619.00
2023-01-22T23:21:31.231Z,620.00
2023-01-22T23:22:31.166Z,620.00
2023-01-22T23:23:31.076Z,620.00
2023-01-22T23:24:31.040Z,618.00
2023-01-22T23:25:30.948Z,622.00
2023-01-22T23:26:30.858Z,620.00
2023-01-22T23:27:30.872Z,620.00
2023-01-22T23:28:30.691Z,617.00
2023-01-22T23:29:30.637Z,619.00
2023-01-22T23:30:30.570Z,616.00
2023-01-22T23:31:30.525Z,620.00
2023-01-22T23:32:30.373Z,619.00
2023-01-22T23:33:30.310Z,621.00
2023-01-22T23:34:30.236Z,619.00
2023-01-22T23:35:30.145Z,618.00
2023-01-22T23:36:30.070Z,616.00
2023-01-22T23:37:30.000Z,623.00
2023-01-22T23:38:29.907Z,621.00
2023-01-22T23:39:29.844Z,621.00
2023-01-22T23:40:29.741Z,622.00
2023-01-22T23:41:29.667Z,618.00
2023-01-22T23:42:29.593Z,618.00
2023-01-22T23:43:29.588Z,621.00
2023-01-22T23:44:29.435Z,620.00
2023-01-22T23:45:29.348Z,619.00
2023-01-22T23:46:29.356Z,620.00
2023-01-22T23:47:29.207Z,623.00
2023-01-22T23:48:29.117Z,618.00
2023-01-22T23:49:29.064Z,618.00
2023-01-22T23:50:28.965Z,616.00
